Time;durP1;ratioP1;P1;durP2;ratioP2;P2;SDS_P1;SDS_P2;PMS_P1;PMS_P2;Temp;Humidity;BMP_temperature;BMP_pressure;BME280_temperature;BME280_humidity;BME280_pressure;Samples;Min_cycle;Max_cycle;Signal;HPM_P1;HPM_P2
2022/02/03 00:01:54;;;;;;;20.88;17.58;;;9.70;99.90;;;;;;5027476;28;20059;-34
2022/02/03 00:04:22;;;;;;;23.52;19.70;;;9.60;99.90;;;;;;5027773;28;20018;-34
2022/02/03 00:06:58;;;;;;;22.35;18.92;;;9.60;99.90;;;;;;5028351;28;20060;-35
2022/02/03 00:09:54;;;;;;;22.70;17.58;;;9.60;99.90;;;;;;5027836;28;20025;-36
2022/02/03 00:25:37;;;;;;;21.50;16.15;;;9.60;99.90;;;;;;5027623;28;20025;-36
2022/02/03 00:28:18;;;;;;;21.65;16.50;;;9.60;99.90;;;;;;5027025;28;20041;-34
2022/02/03 00:33:26;;;;;;;22.08;17.50;;;9.60;99.90;;;;;;5023566;28;20488;-34
2022/02/03 00:36:13;;;;;;;19.27;16.65;;;9.60;99.90;;;;;;5007659;28;20052;-36
2022/02/03 00:50:24;;;;;;;21.25;17.98;;;9.60;99.90;;;;;;5025131;28;20028;-35
2022/02/03 00:52:36;;;;;;;17.83;15.23;;;9.60;99.90;;;;;;5022868;28;20103;-34
2022/02/03 00:55:04;;;;;;;18.25;15.02;;;9.70;99.90;;;;;;5027944;28;20079;-35
2022/02/03 00:57:36;;;;;;;21.42;17.58;;;9.60;99.90;;;;;;5026748;28;20969;-34
2022/02/03 01:00:06;;;;;;;19.77;15.43;;;9.60;99.90;;;;;;5027417;28;20030;-34
2022/02/03 01:02:37;;;;;;;19.02;15.55;;;9.70;99.90;;;;;;5026764;28;20474;-34
2022/02/03 01:05:06;;;;;;;20.88;17.88;;;9.70;99.90;;;;;;5023943;28;20029;-35
2022/02/03 01:07:36;;;;;;;18.35;15.90;;;9.60;99.90;;;;;;5027153;28;20022;-35
2022/02/03 01:10:15;;;;;;;21.85;17.40;;;9.70;99.90;;;;;;5027253;28;20029;-35
2022/02/03 01:13:03;;;;;;;19.02;15.10;;;9.70;99.90;;;;;;5027367;28;20030;-36
2022/02/03 01:15:42;;;;;;;16.92;14.05;;;9.70;99.90;;;;;;5028442;28;20028;-35
2022/02/03 01:45:21;;;;;;;30.23;23.70;;;9.70;99.90;;;;;;5030557;28;20036;-35
2022/02/03 01:47:57;;;;;;;;;;;9.70;99.90;;;;;;5031156;28;20040;-34
2022/02/03 01:52:52;;;;;;;31.75;23.30;;;9.70;99.90;;;;;;5030499;28;20044;-33
2022/02/03 01:55:21;;;;;;;33.83;25.98;;;9.70;99.90;;;;;;5030112;28;20079;-37
2022/02/03 01:58:22;;;;;;;32.80;25.23;;;9.70;99.90;;;;;;5031037;28;20070;-35
2022/02/03 02:00:57;;;;;;;34.40;26.48;;;9.70;99.90;;;;;;5029802;28;20431;-34
2022/02/03 02:03:46;;;;;;;32.58;25.20;;;9.70;99.90;;;;;;5009989;28;20052;-34
2022/02/03 02:06:28;;;;;;;36.45;27.50;;;9.70;99.90;;;;;;5010574;28;20033;-36
2022/02/03 02:09:30;;;;;;;33.17;26.95;;;9.70;99.90;;;;;;4991404;28;20030;-34
2022/02/03 02:12:26;;;;;;;36.33;26.67;;;9.70;99.90;;;;;;5009757;28;20053;-34
2022/02/03 02:43:02;;;;;;;32.33;24.00;;;9.80;99.90;;;;;;5005632;28;20049;-35
2022/02/03 02:45:42;;;;;;;30.70;23.13;;;9.80;99.90;;;;;;4990327;28;20583;-35
2022/02/03 02:48:45;;;;;;;34.90;26.00;;;9.70;99.90;;;;;;5009172;28;20037;-36
2022/02/03 02:51:18;;;;;;;33.67;25.60;;;9.70;99.90;;;;;;5009859;28;20036;-34
2022/02/03 02:56:39;;;;;;;37.15;27.15;;;9.70;99.90;;;;;;5008960;28;20057;-35
2022/02/03 03:35:49;;;;;;;28.92;21.58;;;9.60;99.90;;;;;;5018214;28;20393;-34
2022/02/03 03:38:34;;;;;;;28.10;20.88;;;9.60;99.90;;;;;;5009019;28;20022;-35
2022/02/03 03:41:01;;;;;;;36.15;22.38;;;9.60;99.90;;;;;;5017137;28;20080;-35
2022/02/03 03:43:39;;;;;;;32.10;22.92;;;9.60;99.90;;;;;;5010560;28;20472;-35
2022/02/03 03:46:09;;;;;;;31.52;21.02;;;9.60;99.90;;;;;;5017094;28;20473;-35
2022/02/03 03:48:48;;;;;;;29.10;20.55;;;9.60;99.90;;;;;;5010613;28;20097;-34
2022/02/03 03:51:30;;;;;;;28.85;20.45;;;9.60;99.90;;;;;;5017398;28;20041;-34
2022/02/03 03:54:04;;;;;;;26.65;20.13;;;9.60;99.90;;;;;;5011287;28;20030;-34
2022/02/03 03:56:52;;;;;;;23.73;17.83;;;9.60;99.90;;;;;;5016288;28;20025;-35
2022/02/03 04:31:55;;;;;;;19.52;13.88;;;9.50;99.90;;;;;;5028151;28;20120;-35
2022/02/03 04:54:42;;;;;;;23.23;17.40;;;9.40;99.90;;;;;;5027723;28;20045;-35
2022/02/03 05:00:37;;;;;;;21.50;17.58;;;9.50;99.90;;;;;;5008568;28;20116;-34
2022/02/03 05:03:53;;;;;;;23.23;18.08;;;9.40;99.90;;;;;;5022896;28;20362;-34
2022/02/03 05:06:38;;;;;;;25.85;18.67;;;9.40;99.90;;;;;;5026328;28;20128;-34
2022/02/03 05:12:40;;;;;;;19.55;15.88;;;9.40;99.90;;;;;;5026978;28;20029;-33
2022/02/03 05:42:56;;;;;;;27.77;16.73;;;9.30;99.90;;;;;;5026156;28;20045;-34
2022/02/03 05:45:59;;;;;;;23.02;17.80;;;9.30;99.90;;;;;;5025840;28;20076;-34
2022/02/03 06:02:34;;;;;;;16.83;12.82;;;9.20;99.90;;;;;;5029715;28;20112;-35
2022/02/03 06:05:11;;;;;;;17.42;14.02;;;9.20;99.90;;;;;;5030176;28;20045;-35
2022/02/03 06:13:08;;;;;;;19.83;12.70;;;9.20;99.90;;;;;;5029769;28;20047;-34
2022/02/03 06:23:42;;;;;;;14.80;11.43;;;9.20;99.90;;;;;;5029174;28;20435;-35
2022/02/03 06:29:01;;;;;;;13.57;9.57;;;9.10;99.90;;;;;;5029814;28;20103;-35
2022/02/03 06:31:27;;;;;;;12.93;8.93;;;9.20;99.90;;;;;;5029622;28;20034;-35
2022/02/03 06:33:53;;;;;;;15.10;10.77;;;9.20;99.90;;;;;;5029173;28;20088;-35
2022/02/03 06:36:20;;;;;;;18.65;11.25;;;9.20;99.90;;;;;;5029462;28;20026;-36
2022/02/03 06:38:45;;;;;;;15.95;10.15;;;9.20;99.90;;;;;;5030226;28;20064;-34
2022/02/03 06:41:11;;;;;;;16.90;9.68;;;9.20;99.90;;;;;;5028731;28;20025;-35
2022/02/03 06:43:36;;;;;;;9.98;7.80;;;9.20;99.90;;;;;;5029943;28;20030;-36
2022/02/03 06:46:07;;;;;;;10.73;7.75;;;9.20;99.90;;;;;;5029770;28;20029;-35
2022/02/03 06:48:34;;;;;;;11.52;7.15;;;9.20;99.90;;;;;;5028983;28;20104;-35
2022/02/03 06:51:08;;;;;;;11.63;6.28;;;9.20;99.90;;;;;;5029296;28;20105;-34
2022/02/03 06:53:38;;;;;;;7.05;5.50;;;9.20;99.90;;;;;;5027912;28;20401;-35
2022/02/03 06:56:10;;;;;;;8.25;5.53;;;9.10;99.90;;;;;;5039428;28;20056;-35
2022/02/03 06:58:48;;;;;;;6.43;4.65;;;9.10;99.90;;;;;;5022291;28;20033;-34
2022/02/03 07:01:35;;;;;;;8.18;4.93;;;9.10;99.90;;;;;;5025775;28;20033;-35
2022/02/03 07:04:04;;;;;;;11.43;5.22;;;9.10;99.90;;;;;;5006882;28;20137;-34
2022/02/03 07:06:32;;;;;;;9.05;4.47;;;9.10;99.90;;;;;;5023772;28;20375;-35
2022/02/03 07:09:03;;;;;;;7.28;4.32;;;9.10;99.90;;;;;;5027840;28;20060;-34
2022/02/03 07:11:31;;;;;;;7.32;3.75;;;9.10;99.90;;;;;;5026757;28;20028;-34
2022/02/03 07:13:56;;;;;;;5.60;3.85;;;9.10;99.90;;;;;;5026413;28;20025;-34
2022/02/03 07:16:21;;;;;;;5.03;3.72;;;9.10;99.90;;;;;;5024625;28;20095;-33
2022/02/03 07:18:47;;;;;;;5.85;3.88;;;9.10;99.90;;;;;;5027565;28;20055;-35
2022/02/03 07:21:13;;;;;;;6.28;4.15;;;9.10;99.90;;;;;;5027481;28;20180;-34
2022/02/03 07:23:39;;;;;;;6.07;3.83;;;9.10;99.90;;;;;;5024327;28;20069;-35
2022/02/03 07:26:05;;;;;;;6.60;3.83;;;9.10;99.90;;;;;;5027479;28;20022;-34
2022/02/03 07:28:30;;;;;;;8.88;5.20;;;9.10;99.90;;;;;;5027169;28;20029;-34
2022/02/03 07:30:56;;;;;;;7.57;4.13;;;9.00;99.90;;;;;;5027846;28;20026;-33
2022/02/03 07:33:21;;;;;;;6.38;4.28;;;9.00;99.90;;;;;;5027252;28;20029;-36
2022/02/03 07:35:47;;;;;;;8.73;4.38;;;9.10;99.90;;;;;;5027943;28;20022;-35
2022/02/03 07:38:13;;;;;;;8.13;4.20;;;9.10;99.90;;;;;;5027173;28;20779;-35
2022/02/03 07:40:38;;;;;;;8.23;4.38;;;9.00;99.90;;;;;;5028147;28;20025;-35
2022/02/03 07:43:09;;;;;;;7.22;4.10;;;9.10;99.90;;;;;;5027131;28;20025;-34
2022/02/03 07:45:35;;;;;;;11.10;5.20;;;9.10;99.90;;;;;;5042930;28;20031;-34
2022/02/03 07:48:00;;;;;;;7.13;4.50;;;9.10;99.90;;;;;;5023651;28;20390;-36
2022/02/03 07:50:26;;;;;;;10.48;5.78;;;9.10;99.90;;;;;;5039493;28;20044;-37
2022/02/03 07:52:52;;;;;;;5.45;4.82;;;9.10;99.90;;;;;;5030728;28;20026;-35
2022/02/03 07:55:17;;;;;;;7.07;4.82;;;9.10;99.90;;;;;;5025996;28;20124;-35
2022/02/03 07:57:48;;;;;;;8.50;5.30;;;9.10;99.90;;;;;;5027735;28;20021;-36
2022/02/03 08:00:16;;;;;;;8.27;5.60;;;9.10;99.90;;;;;;5034897;28;20392;-34
2022/02/03 08:02:43;;;;;;;10.93;6.53;;;9.10;99.90;;;;;;5033551;28;20056;-34
2022/02/03 08:05:13;;;;;;;8.70;6.57;;;9.10;99.90;;;;;;5026357;28;20033;-34
2022/02/03 08:08:04;;;;;;;10.05;6.70;;;9.10;99.90;;;;;;5028754;28;20492;-36
2022/02/03 08:10:44;;;;;;;10.32;6.40;;;9.10;99.90;;;;;;5030282;28;20029;-34
2022/02/03 08:13:14;;;;;;;8.60;6.30;;;9.10;99.90;;;;;;5025411;28;20029;-34
2022/02/03 08:15:41;;;;;;;10.25;7.13;;;9.10;99.90;;;;;;5027461;28;20472;-34
2022/02/03 08:18:12;;;;;;;10.15;7.13;;;9.10;99.90;;;;;;5026907;28;20043;-35
2022/02/03 08:20:48;;;;;;;10.40;7.15;;;9.10;99.90;;;;;;5025782;28;20052;-34
2022/02/03 08:23:41;;;;;;;12.38;7.85;;;9.10;99.90;;;;;;5026617;28;20045;-35
2022/02/03 08:26:13;;;;;;;10.10;7.32;;;9.00;99.90;;;;;;5026682;28;20029;-34
2022/02/03 08:31:28;;;;;;;11.40;7.70;;;9.10;99.90;;;;;;5026326;28;20025;-35
2022/02/03 08:33:55;;;;;;;11.57;8.10;;;9.00;99.90;;;;;;5021388;28;20113;-35
2022/02/03 08:36:22;;;;;;;10.30;7.95;;;9.00;99.90;;;;;;5027485;28;20602;-35
2022/02/03 08:38:53;;;;;;;10.10;7.45;;;9.00;99.90;;;;;;5026277;28;20026;-35
2022/02/03 08:41:19;;;;;;;11.93;7.90;;;9.00;99.90;;;;;;5028360;28;20025;-34
2022/02/03 08:43:46;;;;;;;9.65;8.02;;;9.10;99.90;;;;;;5037930;28;20029;-35
2022/02/03 08:46:15;;;;;;;11.75;8.63;;;9.00;99.90;;;;;;5026648;28;20025;-34
2022/02/03 08:48:41;;;;;;;11.43;8.98;;;9.00;99.90;;;;;;5026036;28;20045;-34
2022/02/03 08:51:08;;;;;;;12.85;7.90;;;9.00;99.90;;;;;;5026756;28;20095;-35
2022/02/03 08:53:42;;;;;;;11.73;8.70;;;9.00;99.90;;;;;;5026330;28;20060;-35
2022/02/03 08:59:06;;;;;;;11.73;7.82;;;9.00;99.90;;;;;;5026412;28;20489;-34
2022/02/03 09:34:40;;;;;;;16.60;9.05;;;8.90;99.90;;;;;;5026035;28;20548;-35
2022/02/03 09:37:04;;;;;;;12.73;8.63;;;8.90;99.90;;;;;;5026236;28;20029;-34
2022/02/03 09:58:39;;;;;;;11.52;8.30;;;9.00;99.90;;;;;;4988854;28;20053;-33
2022/02/03 10:01:11;;;;;;;11.05;7.90;;;9.00;99.90;;;;;;5029284;28;20025;-35
2022/02/03 10:08:30;;;;;;;12.65;8.82;;;9.00;99.90;;;;;;5018843;28;20033;-34
2022/02/03 10:11:24;;;;;;;10.70;8.43;;;9.00;99.90;;;;;;5028367;28;20053;-35
2022/02/03 10:13:55;;;;;;;14.50;9.75;;;9.00;99.90;;;;;;5007952;28;20484;-45
2022/02/03 10:16:25;;;;;;;14.15;8.90;;;8.90;99.90;;;;;;5027778;28;20022;-35
2022/02/03 10:19:19;;;;;;;12.27;8.88;;;8.80;99.90;;;;;;5018268;28;20033;-33
2022/02/03 10:21:49;;;;;;;10.73;7.97;;;8.80;99.90;;;;;;5027430;28;20095;-35
2022/02/03 10:24:17;;;;;;;11.18;7.50;;;8.80;99.90;;;;;;5019162;28;20017;-34
2022/02/03 10:26:47;;;;;;;10.32;7.57;;;8.80;99.90;;;;;;5027747;28;20021;-35
2022/02/03 10:29:27;;;;;;;9.27;7.50;;;8.80;99.90;;;;;;5018574;28;20030;-33
2022/02/03 10:31:53;;;;;;;10.82;8.68;;;8.80;99.90;;;;;;5028168;28;20049;-34
2022/02/03 10:34:25;;;;;;;11.30;7.90;;;8.80;99.90;;;;;;5016587;28;20112;-34
2022/02/03 10:37:20;;;;;;;13.25;7.88;;;8.90;99.90;;;;;;5028116;28;20104;-35
2022/02/03 10:40:21;;;;;;;12.98;7.97;;;8.90;99.90;;;;;;5005616;28;20052;-33
2022/02/03 10:46:23;;;;;;;13.98;8.05;;;9.00;99.90;;;;;;4949801;28;20075;-34
2022/02/03 10:57:15;;;;;;;9.32;7.32;;;9.10;99.90;;;;;;4989517;28;20045;-34
2022/02/03 11:05:27;;;;;;;9.73;6.88;;;9.20;99.90;;;;;;5026161;28;20029;-34
2022/02/03 11:10:33;;;;;;;10.02;6.75;;;9.40;99.90;;;;;;5027327;28;20025;-34
2022/02/03 11:12:59;;;;;;;13.85;7.45;;;9.50;99.90;;;;;;5029123;28;20032;-34
2022/02/03 11:15:27;;;;;;;10.35;6.80;;;9.50;99.90;;;;;;5027607;28;20796;-34
2022/02/03 11:17:55;;;;;;;10.23;6.35;;;9.50;99.90;;;;;;5028497;28;20475;-34
2022/02/03 11:20:23;;;;;;;9.55;6.57;;;9.50;99.90;;;;;;5026237;28;20504;-34
2022/02/03 11:28:05;;;;;;;9.88;6.70;;;9.50;99.90;;;;;;5028926;28;20652;-34
2022/02/03 11:36:15;;;;;;;8.50;6.15;;;9.60;99.90;;;;;;5028083;28;20034;-34
2022/02/03 11:45:12;;;;;;;13.85;6.88;;;9.50;99.90;;;;;;5027808;28;20127;-33
2022/02/03 11:47:49;;;;;;;11.50;7.10;;;9.50;99.90;;;;;;5020067;28;20390;-33
2022/02/03 11:50:55;;;;;;;10.63;7.63;;;9.50;99.90;;;;;;5027581;28;20104;-34
2022/02/03 11:56:36;;;;;;;14.07;8.25;;;9.40;99.90;;;;;;5028187;28;20091;-35
2022/02/03 12:13:57;;;;;;;10.55;8.25;;;9.40;99.90;;;;;;5026507;28;20120;-34
2022/02/03 12:22:09;;;;;;;10.52;8.30;;;9.60;99.90;;;;;;5027077;28;20029;-33
2022/02/03 12:24:37;;;;;;;11.07;7.75;;;9.70;99.90;;;;;;5006592;28;20034;-35
2022/02/03 12:27:26;;;;;;;12.70;9.32;;;9.70;99.90;;;;;;5022390;28;20679;-36
2022/02/03 12:30:05;;;;;;;11.93;7.30;;;9.80;99.90;;;;;;5007766;28;20026;-35
2022/02/03 12:43:34;;;;;;;13.27;7.55;;;9.60;99.90;;;;;;5026440;28;20048;-34
2022/02/03 12:46:02;;;;;;;13.18;7.60;;;9.60;99.90;;;;;;5027376;28;20029;-35
2022/02/03 12:48:35;;;;;;;11.35;8.02;;;9.50;99.90;;;;;;5025299;28;20026;-35
2022/02/03 12:51:05;;;;;;;9.90;7.03;;;9.50;99.90;;;;;;5027071;28;20080;-35
2022/02/03 12:53:38;;;;;;;10.95;7.22;;;9.50;99.90;;;;;;5026869;28;20026;-34
2022/02/03 12:56:06;;;;;;;12.23;7.93;;;9.50;99.90;;;;;;5027490;28;20093;-34
2022/02/03 12:58:40;;;;;;;14.63;7.95;;;9.40;99.90;;;;;;5026199;28;20037;-34
2022/02/03 13:01:12;;;;;;;16.50;7.97;;;9.40;99.90;;;;;;5026220;28;20113;-36
2022/02/03 13:03:44;;;;;;;9.05;7.05;;;9.40;99.90;;;;;;5026510;28;20045;-33
2022/02/03 13:06:17;;;;;;;11.65;7.30;;;9.40;99.90;;;;;;5026950;28;20025;-35
2022/02/03 13:08:46;;;;;;;8.90;6.88;;;9.40;99.90;;;;;;5026425;28;20029;-33
2022/02/03 13:14:10;;;;;;;12.35;7.10;;;9.40;99.90;;;;;;5030416;28;20037;-34
2022/02/03 13:16:30;;;;;;;11.55;6.95;;;9.40;99.90;;;;;;5009370;28;20128;-36
2022/02/03 13:19:15;;;;;;;7.15;6.38;;;9.50;99.90;;;;;;5027796;28;20029;-34
2022/02/03 13:26:52;;;;;;;10.55;7.65;;;9.40;99.90;;;;;;5031022;28;20034;-35
2022/02/03 13:29:27;;;;;;;9.77;6.72;;;9.30;99.90;;;;;;5029086;28;20112;-35
2022/02/03 13:31:58;;;;;;;8.55;6.45;;;9.30;99.90;;;;;;5030659;28;20464;-35
2022/02/03 13:34:31;;;;;;;8.55;6.72;;;9.30;99.90;;;;;;5030273;28;20028;-35
2022/02/03 13:37:12;;;;;;;10.55;6.13;;;9.30;99.90;;;;;;5010282;28;20056;-36
2022/02/03 13:39:39;;;;;;;10.57;6.57;;;9.30;99.90;;;;;;5026972;28;20143;-34
2022/02/03 13:42:09;;;;;;;9.80;6.70;;;9.30;99.90;;;;;;5029831;28;20021;-33
2022/02/03 13:44:35;;;;;;;9.02;6.38;;;9.30;99.90;;;;;;5029699;28;20388;-34
2022/02/03 13:47:18;;;;;;;7.70;6.05;;;9.30;99.90;;;;;;5030362;28;20464;-34
2022/02/03 13:49:44;;;;;;;10.02;6.40;;;9.30;99.90;;;;;;5029710;28;20025;-34
2022/02/03 13:52:15;;;;;;;8.15;6.35;;;9.30;99.90;;;;;;5029838;28;20455;-34
2022/02/03 14:10:30;;;;;;;9.65;6.90;;;9.30;99.90;;;;;;5030282;28;20076;-33
2022/02/03 14:14:40;;;;;;;6.95;5.97;;;8.90;99.90;;;;;;5029557;28;20388;-34
2022/02/03 14:22:28;;;;;;;10.68;8.10;;;9.00;99.90;;;;;;5019763;28;20854;-34
2022/02/03 14:27:43;;;;;;;10.25;7.93;;;8.90;99.90;;;;;;5029997;28;20483;-35
2022/02/03 14:30:15;;;;;;;9.45;6.80;;;8.90;99.90;;;;;;5029244;28;20041;-34
2022/02/03 14:32:42;;;;;;;8.98;6.50;;;8.80;99.90;;;;;;5029344;28;20040;-33
2022/02/03 14:35:10;;;;;;;12.02;7.88;;;8.80;99.90;;;;;;5029246;28;20026;-34
2022/02/03 14:42:39;;;;;;;10.77;8.05;;;8.80;99.90;;;;;;5029133;28;20036;-34
2022/02/03 14:45:06;;;;;;;12.20;9.18;;;8.80;99.90;;;;;;5029456;28;20022;-35
2022/02/03 14:47:33;;;;;;;10.13;8.60;;;8.80;99.90;;;;;;5028773;28;20022;-34
2022/02/03 14:50:04;;;;;;;10.50;8.48;;;8.80;99.90;;;;;;5028816;28;20455;-34
2022/02/03 14:52:33;;;;;;;12.68;8.95;;;8.70;99.90;;;;;;5027718;28;20026;-34
2022/02/03 14:58:03;;;;;;;13.48;8.60;;;8.70;99.90;;;;;;5028831;28;20063;-35
2022/02/03 15:00:29;;;;;;;10.68;8.45;;;8.70;99.90;;;;;;5027976;28;20461;-35
2022/02/03 15:02:56;;;;;;;9.75;7.22;;;8.60;99.90;;;;;;5029029;28;20095;-35
2022/02/03 15:05:26;;;;;;;10.82;8.68;;;8.70;99.90;;;;;;5028807;28;20404;-35
2022/02/03 15:07:57;;;;;;;10.25;8.30;;;8.60;99.90;;;;;;5028416;28;20056;-34
2022/02/03 15:15:52;;;;;;;11.45;8.23;;;8.60;99.90;;;;;;5027922;28;20111;-35
2022/02/03 15:18:18;;;;;;;10.25;7.57;;;8.60;99.90;;;;;;5028224;28;20092;-34
2022/02/03 15:20:44;;;;;;;10.15;7.47;;;8.60;99.90;;;;;;5029235;28;20018;-33
2022/02/03 15:23:09;;;;;;;9.18;6.88;;;8.60;99.90;;;;;;5027365;28;20037;-34
2022/02/03 15:25:35;;;;;;;10.52;8.02;;;8.70;99.90;;;;;;5028259;28;20104;-34
2022/02/03 15:28:01;;;;;;;11.60;7.97;;;8.60;99.90;;;;;;5028789;28;20467;-34
2022/02/03 15:30:27;;;;;;;11.60;7.75;;;8.70;99.90;;;;;;5026664;28;20469;-34
2022/02/03 15:32:53;;;;;;;9.57;7.93;;;8.70;99.90;;;;;;5028011;28;20027;-34
2022/02/03 15:35:25;;;;;;;10.35;7.55;;;8.70;99.90;;;;;;5027421;28;20120;-34
2022/02/03 15:37:52;;;;;;;;;;;8.70;99.90;;;;;;5028903;28;20025;-33
2022/02/03 15:40:23;;;;;;;10.45;7.53;;;8.70;99.90;;;;;;5026664;28;19913;-34
2022/02/03 15:42:58;;;;;;;11.20;8.43;;;8.70;99.90;;;;;;5027634;28;20116;-34
2022/02/03 15:45:24;;;;;;;11.98;8.02;;;8.70;99.90;;;;;;5027396;28;20468;-35
2022/02/03 15:47:56;;;;;;;9.95;7.63;;;8.60;99.90;;;;;;5028378;28;20032;-35
2022/02/03 15:50:56;;;;;;;16.15;9.65;;;8.60;99.90;;;;;;5026955;28;20478;-34
2022/02/03 16:00:08;;;;;;;12.95;8.77;;;8.60;99.90;;;;;;5027235;28;20477;-34
2022/02/03 16:16:29;;;;;;;13.75;8.80;;;8.60;99.90;;;;;;5026583;28;20090;-35
2022/02/03 16:18:05;;;;;;;11.38;8.50;;;8.60;99.90;;;;;;5026973;28;20037;-34
2022/02/03 16:20:41;;;;;;;11.05;8.95;;;8.60;99.90;;;;;;5027028;28;20025;-34
2022/02/03 16:50:49;;;;;;;16.38;11.57;;;8.60;99.90;;;;;;5026312;28;20052;-33
2022/02/03 16:53:15;;;;;;;14.02;10.85;;;8.60;99.90;;;;;;5025256;28;20032;-35
2022/02/03 16:55:43;;;;;;;13.18;11.77;;;8.60;99.90;;;;;;5027330;28;20033;-34
2022/02/03 16:58:10;;;;;;;15.85;12.27;;;8.60;99.90;;;;;;5026714;28;20440;-34
2022/02/03 17:00:36;;;;;;;14.93;11.48;;;8.60;99.90;;;;;;5026030;28;20080;-33
2022/02/03 17:03:02;;;;;;;14.05;11.38;;;8.60;99.90;;;;;;5026745;28;20524;-35
2022/02/03 17:05:29;;;;;;;13.20;11.80;;;8.60;99.90;;;;;;5026034;28;20029;-33
2022/02/03 17:07:55;;;;;;;16.55;12.32;;;8.50;99.90;;;;;;5026054;28;20530;-34
2022/02/03 17:10:24;;;;;;;14.40;12.82;;;8.60;99.90;;;;;;5026650;28;20033;-34
2022/02/03 17:12:52;;;;;;;17.25;13.63;;;8.60;99.90;;;;;;5026731;28;20026;-34
2022/02/03 17:15:20;;;;;;;15.05;12.80;;;8.60;99.90;;;;;;5025314;28;20038;-34
2022/02/03 17:17:50;;;;;;;16.13;12.85;;;8.60;99.90;;;;;;5026435;28;20053;-32
2022/02/03 17:20:16;;;;;;;15.65;13.80;;;8.50;99.90;;;;;;5026304;28;20104;-34
2022/02/03 17:22:44;;;;;;;18.98;14.95;;;8.60;99.90;;;;;;5025880;28;20033;-33
2022/02/03 17:28:21;;;;;;;16.35;12.55;;;8.60;99.90;;;;;;5023999;28;20095;-33
2022/02/03 18:35:28;;;;;;;25.60;19.80;;;8.50;99.90;;;;;;5029810;28;20034;-34
2022/02/03 18:51:38;;;;;;;23.98;19.85;;;8.50;99.90;;;;;;5028344;28;20121;-33
2022/02/03 18:54:26;;;;;;;23.40;19.73;;;8.50;99.90;;;;;;5026077;28;20026;-33
2022/02/03 19:02:36;;;;;;;27.40;20.60;;;8.50;99.90;;;;;;5028408;28;20044;-34
2022/02/03 19:26:17;;;;;;;24.25;19.88;;;8.50;99.90;;;;;;5023872;28;20026;-34
2022/02/03 20:00:26;;;;;;;29.55;22.17;;;8.50;99.90;;;;;;5029169;28;20114;-34
2022/02/03 20:02:26;;;;;;;27.40;22.02;;;8.50;99.90;;;;;;5028290;28;20672;-34
2022/02/03 20:07:41;;;;;;;27.10;20.55;;;8.50;99.90;;;;;;5027864;28;20106;-34
2022/02/03 20:10:33;;;;;;;24.60;18.90;;;8.50;99.90;;;;;;5008189;28;20532;-35
2022/02/03 20:12:53;;;;;;;20.80;17.73;;;8.50;99.90;;;;;;5025490;28;20080;-37
2022/02/03 20:15:23;;;;;;;25.10;19.30;;;8.50;99.90;;;;;;5027952;28;20377;-35
2022/02/03 20:17:48;;;;;;;28.65;22.00;;;8.60;99.90;;;;;;5027729;28;20029;-36
2022/02/03 20:20:14;;;;;;;30.52;23.95;;;8.60;99.90;;;;;;5026873;28;20137;-34
2022/02/03 20:22:40;;;;;;;25.92;20.83;;;8.50;99.90;;;;;;5028186;28;20154;-34
2022/02/03 20:25:07;;;;;;;29.02;22.63;;;8.50;99.90;;;;;;5027361;28;20032;-34
2022/02/03 20:27:33;;;;;;;28.17;23.33;;;8.50;99.90;;;;;;5027878;28;20432;-34
2022/02/03 20:29:59;;;;;;;28.88;23.33;;;8.50;99.90;;;;;;5028243;28;20033;-37
2022/02/03 20:32:28;;;;;;;29.38;23.17;;;8.50;99.90;;;;;;5026055;28;20026;-34
2022/02/03 20:34:54;;;;;;;26.95;20.85;;;8.50;99.90;;;;;;5028322;28;20445;-36
2022/02/03 20:37:19;;;;;;;29.67;22.90;;;8.50;99.90;;;;;;5027578;28;20025;-34
2022/02/03 20:39:45;;;;;;;24.95;20.75;;;8.50;99.90;;;;;;5024489;28;20029;-34
2022/02/03 20:42:15;;;;;;;27.88;21.88;;;8.40;99.90;;;;;;5026876;28;20518;-35
2022/02/03 20:44:45;;;;;;;26.23;21.27;;;8.40;99.90;;;;;;5027096;28;20031;-36
2022/02/03 20:47:11;;;;;;;32.08;23.83;;;8.40;99.90;;;;;;5026074;28;20021;-34
2022/02/03 20:49:36;;;;;;;28.33;22.00;;;8.50;99.90;;;;;;5026933;28;20468;-34
2022/02/03 20:52:02;;;;;;;32.63;23.98;;;8.40;99.90;;;;;;5026972;28;20024;-35
2022/02/03 20:54:28;;;;;;;26.63;21.33;;;8.50;99.90;;;;;;5026012;28;20037;-34
2022/02/03 20:56:53;;;;;;;28.30;22.25;;;8.50;99.90;;;;;;5027456;28;20136;-34
2022/02/03 20:59:26;;;;;;;28.95;21.55;;;8.50;99.90;;;;;;5025148;28;20030;-34
2022/02/03 21:01:53;;;;;;;25.52;20.65;;;8.50;99.90;;;;;;5027429;28;20053;-35
2022/02/03 21:04:32;;;;;;;27.63;21.58;;;8.50;99.90;;;;;;5026114;28;20523;-34
2022/02/03 21:06:57;;;;;;;25.92;20.15;;;8.50;99.90;;;;;;5026593;28;20025;-34
2022/02/03 21:09:23;;;;;;;29.02;22.15;;;8.50;99.90;;;;;;5026127;28;20037;-34
2022/02/03 21:11:48;;;;;;;30.30;22.77;;;8.50;99.90;;;;;;5027193;28;20049;-35
2022/02/03 21:14:14;;;;;;;30.00;23.35;;;8.60;99.90;;;;;;5025526;28;20021;-34
2022/02/03 21:16:40;;;;;;;30.05;23.02;;;8.60;99.90;;;;;;5027508;28;20758;-35
2022/02/03 21:19:06;;;;;;;26.55;20.73;;;8.60;99.90;;;;;;5026399;28;20040;-34
2022/02/03 21:21:39;;;;;;;27.83;22.77;;;8.60;99.90;;;;;;5025390;28;20029;-35
2022/02/03 21:24:05;;;;;;;29.13;22.48;;;8.60;99.90;;;;;;5026568;28;20037;-33
2022/02/03 21:26:37;;;;;;;31.05;23.08;;;8.60;99.90;;;;;;5026938;28;20543;-34
2022/02/03 21:29:03;;;;;;;31.25;25.20;;;8.60;99.90;;;;;;5025890;28;20820;-35
2022/02/03 21:31:28;;;;;;;32.05;25.85;;;8.60;99.90;;;;;;5027325;28;20038;-34
2022/02/03 21:33:56;;;;;;;33.38;26.10;;;8.60;99.90;;;;;;5030483;28;20028;-35
2022/02/03 21:36:24;;;;;;;29.13;22.75;;;8.50;99.90;;;;;;5029408;28;20413;-34
2022/02/03 21:38:50;;;;;;;30.67;22.92;;;8.60;99.90;;;;;;5030464;28;20017;-35
2022/02/03 21:41:17;;;;;;;29.23;22.83;;;8.60;99.90;;;;;;5029750;28;20395;-34
2022/02/03 21:43:43;;;;;;;31.27;23.17;;;8.60;99.90;;;;;;5030381;28;20117;-35
2022/02/03 21:46:10;;;;;;;29.65;21.98;;;8.60;99.90;;;;;;5029898;28;20095;-35
2022/02/03 21:48:38;;;;;;;30.33;23.58;;;8.60;99.90;;;;;;5029662;28;20029;-34
2022/02/03 21:51:05;;;;;;;32.40;23.85;;;8.60;99.90;;;;;;5030384;28;20021;-35
2022/02/03 21:53:33;;;;;;;32.00;24.20;;;8.60;99.90;;;;;;5030142;28;20031;-33
2022/02/03 21:55:59;;;;;;;32.65;24.27;;;8.60;99.90;;;;;;5029520;28;20060;-35
2022/02/03 21:58:26;;;;;;;30.80;23.73;;;8.60;99.90;;;;;;5029738;28;20411;-34
2022/02/03 22:00:53;;;;;;;29.20;22.63;;;8.70;99.90;;;;;;5030249;28;20045;-35
2022/02/03 22:03:18;;;;;;;30.23;23.20;;;8.70;99.90;;;;;;5028667;28;20053;-34
2022/02/03 22:05:44;;;;;;;30.52;23.02;;;8.70;99.90;;;;;;5029742;28;20025;-35
2022/02/03 22:08:12;;;;;;;28.75;22.67;;;8.70;99.90;;;;;;5030140;28;20025;-35
2022/02/03 22:10:37;;;;;;;31.90;24.23;;;8.60;99.90;;;;;;5028256;28;20056;-36
2022/02/03 22:13:03;;;;;;;27.40;21.95;;;8.60;99.90;;;;;;5029933;28;20057;-34
2022/02/03 22:15:28;;;;;;;32.83;24.38;;;8.60;99.90;;;;;;5028924;28;20483;-36
2022/02/03 22:17:54;;;;;;;35.45;26.10;;;8.60;99.90;;;;;;5029313;28;20021;-35
2022/02/03 22:20:31;;;;;;;33.28;24.92;;;8.60;99.90;;;;;;5029809;28;20018;-33
2022/02/03 22:26:00;;;;;;;32.50;25.80;;;8.60;99.90;;;;;;5028620;28;20029;-34
2022/02/03 22:39:13;;;;;;;31.08;22.85;;;8.50;99.90;;;;;;5029931;28;20114;-34
2022/02/03 22:49:35;;;;;;;30.38;23.67;;;8.60;99.90;;;;;;5030183;28;20029;-34
2022/02/03 22:52:01;;;;;;;34.30;23.98;;;8.50;99.90;;;;;;5028900;28;20044;-33
2022/02/03 22:54:26;;;;;;;28.90;22.88;;;8.50;99.90;;;;;;5029513;28;20014;-36
2022/02/03 22:56:52;;;;;;;32.28;25.42;;;8.60;99.90;;;;;;5030257;28;20060;-34
2022/02/03 23:02:02;;;;;;;32.08;25.02;;;8.50;99.90;;;;;;5028062;28;20096;-37
2022/02/03 23:04:29;;;;;;;31.63;25.13;;;8.50;99.90;;;;;;5018147;28;20051;-35
2022/02/03 23:07:04;;;;;;;28.38;22.45;;;8.50;99.90;;;;;;5027685;28;20109;-34
2022/02/03 23:12:10;;;;;;;28.10;22.40;;;8.50;99.90;;;;;;5028224;28;20045;-35
2022/02/03 23:15:03;;;;;;;29.00;22.67;;;8.50;99.90;;;;;;5018083;28;20045;-34
2022/02/03 23:17:42;;;;;;;36.28;26.45;;;8.50;99.90;;;;;;5027169;28;20117;-35
2022/02/03 23:20:20;;;;;;;32.22;24.42;;;8.50;99.90;;;;;;5018952;28;20065;-35
2022/02/03 23:22:46;;;;;;;34.10;25.00;;;8.50;99.90;;;;;;5010411;28;20044;-34
2022/02/03 23:25:16;;;;;;;32.47;24.50;;;8.50;99.90;;;;;;5020624;28;20030;-35
2022/02/03 23:30:16;;;;;;;31.70;24.20;;;8.50;99.90;;;;;;5021008;28;20034;-34
2022/02/03 23:32:42;;;;;;;32.05;23.60;;;8.50;99.90;;;;;;5010970;28;20022;-36
2022/02/03 23:35:27;;;;;;;32.58;23.95;;;8.50;99.90;;;;;;5019176;28;20038;-34
2022/02/03 23:38:16;;;;;;;28.45;21.98;;;8.50;99.90;;;;;;5010464;28;20049;-34
2022/02/03 23:44:26;;;;;;;28.73;22.25;;;8.60;99.90;;;;;;4960029;28;20604;-34
2022/02/03 23:49:56;;;;;;;34.78;25.48;;;8.50;99.90;;;;;;5022182;28;20058;-35
2022/02/03 23:52:29;;;;;;;31.80;24.17;;;8.50;99.90;;;;;;5026310;28;20057;-33
